Time;durP1;ratioP1;P1;durP2;ratioP2;P2;SDS_P1;SDS_P2;PMS_P1;PMS_P2;Temp;Humidity;BMP_temperature;BMP_pressure;BME280_temperature;BME280_humidity;BME280_pressure;Samples;Min_cycle;Max_cycle;Signal;HPM_P1;HPM_P2
2022/10/20 00:01:02;;;;;;;13.37;12.03;;;12.80;99.90;;;;;;5073633;28;20480;-57
2022/10/20 00:03:31;;;;;;;12.77;11.20;;;12.90;99.90;;;;;;5075315;28;20464;-57
2022/10/20 00:06:08;;;;;;;13.37;11.57;;;12.90;99.90;;;;;;5074945;28;20444;-57
2022/10/20 00:08:35;;;;;;;12.70;11.40;;;13.00;99.90;;;;;;5073220;28;20757;-56
2022/10/20 00:11:02;;;;;;;13.47;12.03;;;13.00;99.90;;;;;;5075506;28;20445;-57
2022/10/20 00:13:29;;;;;;;14.27;12.20;;;13.00;99.90;;;;;;5075173;28;20474;-57
2022/10/20 00:15:58;;;;;;;14.30;12.00;;;13.00;99.90;;;;;;5073455;28;20451;-56
2022/10/20 00:18:26;;;;;;;13.97;12.07;;;13.00;99.90;;;;;;5075721;28;20470;-57
2022/10/20 00:20:55;;;;;;;14.17;12.13;;;13.00;99.90;;;;;;5075303;28;20488;-57
2022/10/20 00:23:22;;;;;;;13.80;12.33;;;13.00;99.90;;;;;;5073154;28;20540;-57
2022/10/20 00:25:59;;;;;;;15.10;12.90;;;13.00;99.90;;;;;;5075025;28;20539;-57
2022/10/20 00:28:26;;;;;;;14.23;10.87;;;12.90;99.90;;;;;;5075566;28;20428;-57
2022/10/20 00:30:55;;;;;;;13.27;11.40;;;;;;;;;;5073138;28;20812;-57
2022/10/20 00:33:22;;;;;;;13.57;12.17;;;12.60;99.90;;;;;;5074768;28;20986;-57
2022/10/20 00:35:49;;;;;;;12.67;11.40;;;12.50;99.90;;;;;;5075219;28;20809;-57
2022/10/20 00:38:18;;;;;;;15.63;11.37;;;12.70;99.90;;;;;;5072455;28;20575;-57
2022/10/20 00:40:45;;;;;;;12.37;11.07;;;12.70;99.90;;;;;;5074794;28;20488;-57
2022/10/20 00:43:14;;;;;;;11.90;10.63;;;12.70;99.90;;;;;;5075038;28;20449;-57
2022/10/20 00:45:42;;;;;;;13.60;11.80;;;12.60;99.90;;;;;;5072307;28;20459;-57
2022/10/20 00:48:16;;;;;;;12.00;10.77;;;12.60;99.90;;;;;;5074528;28;20910;-57
2022/10/20 00:50:49;;;;;;;13.63;11.73;;;12.60;99.90;;;;;;5074667;28;20958;-57
2022/10/20 00:53:18;;;;;;;12.67;10.83;;;12.70;99.90;;;;;;5072642;28;20471;-57
2022/10/20 00:55:49;;;;;;;14.17;12.33;;;12.70;99.90;;;;;;5074872;28;20914;-56
2022/10/20 00:58:18;;;;;;;12.47;10.30;;;12.60;99.90;;;;;;5074547;28;20432;-57
2022/10/20 01:00:47;;;;;;;21.87;12.00;;;12.70;99.90;;;;;;5072067;28;20487;-57
2022/10/20 01:03:19;;;;;;;13.70;10.40;;;12.70;99.90;;;;;;5074768;28;20478;-57
2022/10/20 01:05:46;;;;;;;15.80;10.30;;;12.70;99.90;;;;;;5074663;28;20432;-57
2022/10/20 01:08:13;;;;;;;14.87;10.93;;;12.60;99.90;;;;;;5071877;28;20823;-56
2022/10/20 01:10:50;;;;;;;16.77;10.33;;;12.60;99.90;;;;;;5074644;28;20440;-57
2022/10/20 01:13:27;;;;;;;11.93;10.63;;;12.50;99.90;;;;;;5074113;28;20463;-57
2022/10/20 01:16:03;;;;;;;11.67;10.47;;;12.40;99.90;;;;;;5071996;28;20926;-57
2022/10/20 01:18:38;;;;;;;16.93;11.37;;;12.50;99.90;;;;;;5074650;28;20456;-57
2022/10/20 01:21:38;;;;;;;12.67;11.10;;;12.40;99.90;;;;;;5073946;28;20474;-57
2022/10/20 01:24:30;;;;;;;13.83;11.70;;;12.50;99.90;;;;;;5068450;28;20452;-57
2022/10/20 01:27:27;;;;;;;12.77;11.40;;;12.50;99.90;;;;;;5073824;28;20435;-57
2022/10/20 01:30:01;;;;;;;12.90;11.60;;;12.50;99.90;;;;;;5072290;28;20515;-57
2022/10/20 01:32:37;;;;;;;14.50;11.30;;;12.40;99.90;;;;;;5073982;28;20478;-57
2022/10/20 01:35:11;;;;;;;20.17;10.90;;;12.40;99.90;;;;;;5073761;28;20416;-57
2022/10/20 01:37:44;;;;;;;15.70;11.93;;;12.40;99.90;;;;;;5071699;28;20432;-61
2022/10/20 01:40:20;;;;;;;17.00;12.30;;;12.40;99.90;;;;;;5073716;28;20468;-57
2022/10/20 01:42:52;;;;;;;12.90;11.50;;;12.40;99.90;;;;;;5073939;28;20464;-57
2022/10/20 01:45:21;;;;;;;14.53;11.50;;;12.40;99.90;;;;;;5071711;28;20425;-57
2022/10/20 01:47:50;;;;;;;17.17;11.00;;;12.40;99.90;;;;;;5073448;28;20941;-57
2022/10/20 01:50:18;;;;;;;16.67;12.63;;;12.40;99.90;;;;;;5073480;28;20472;-57
2022/10/20 01:52:45;;;;;;;14.87;11.70;;;12.30;99.90;;;;;;5071248;28;20461;-57
2022/10/20 01:55:14;;;;;;;14.57;10.30;;;12.30;99.90;;;;;;5073080;28;20935;-57
2022/10/20 01:58:04;;;;;;;12.37;11.17;;;12.30;99.90;;;;;;5072481;28;20805;-57
2022/10/20 02:00:31;;;;;;;15.50;10.83;;;12.40;99.90;;;;;;5069903;28;20468;-57
2022/10/20 02:03:15;;;;;;;13.27;11.53;;;12.50;99.90;;;;;;5073498;28;20468;-57
2022/10/20 02:05:58;;;;;;;12.40;11.07;;;12.30;99.90;;;;;;5073262;28;20797;-57
2022/10/20 02:08:32;;;;;;;15.33;12.77;;;12.20;99.90;;;;;;5071105;28;20452;-57
2022/10/20 02:11:03;;;;;;;12.87;11.60;;;12.30;99.90;;;;;;5073459;28;20443;-57
2022/10/20 02:13:35;;;;;;;14.33;12.30;;;12.30;99.90;;;;;;5073686;28;20464;-57
2022/10/20 02:16:07;;;;;;;15.63;12.23;;;12.30;99.90;;;;;;5070840;28;20439;-57
2022/10/20 02:18:39;;;;;;;12.57;10.90;;;12.40;99.90;;;;;;5073285;28;20440;-57
2022/10/20 02:21:07;;;;;;;13.93;12.10;;;12.40;99.90;;;;;;5072731;28;20460;-57
2022/10/20 02:23:42;;;;;;;13.03;11.53;;;12.30;99.90;;;;;;5070810;28;20491;-57
2022/10/20 02:26:14;;;;;;;15.93;10.77;;;12.30;99.90;;;;;;5073176;28;20409;-57
2022/10/20 02:28:48;;;;;;;14.80;12.10;;;12.40;99.90;;;;;;5073148;28;20424;-57
2022/10/20 02:31:15;;;;;;;12.37;10.90;;;12.30;99.90;;;;;;5070555;28;20429;-57
2022/10/20 02:33:44;;;;;;;12.70;10.50;;;12.30;99.90;;;;;;5073011;28;20475;-58
2022/10/20 02:36:17;;;;;;;15.57;11.07;;;12.30;99.90;;;;;;5072732;28;20814;-57
2022/10/20 02:38:44;;;;;;;12.73;11.40;;;12.30;99.90;;;;;;5072021;28;20409;-57
2022/10/20 02:41:11;;;;;;;13.00;11.60;;;12.10;99.90;;;;;;5072898;28;20839;-57
2022/10/20 02:43:39;;;;;;;15.07;10.77;;;12.10;99.90;;;;;;5072406;28;20471;-57
2022/10/20 02:46:08;;;;;;;14.57;11.77;;;12.10;99.90;;;;;;5071660;28;20931;-57
2022/10/20 02:48:37;;;;;;;13.13;10.23;;;12.10;99.90;;;;;;5072456;28;20452;-57
2022/10/20 02:51:05;;;;;;;12.87;11.53;;;12.20;99.90;;;;;;5072458;28;20421;-57
2022/10/20 02:53:32;;;;;;;13.53;11.23;;;12.30;99.90;;;;;;5072265;28;20472;-57
2022/10/20 02:56:00;;;;;;;12.40;11.10;;;12.40;99.90;;;;;;5072769;28;20455;-57
2022/10/20 02:58:27;;;;;;;14.43;11.77;;;12.20;99.90;;;;;;5072101;28;20539;-57
2022/10/20 03:00:54;;;;;;;15.70;11.70;;;12.20;99.90;;;;;;5071406;28;20483;-57
2022/10/20 03:03:22;;;;;;;14.60;12.00;;;12.20;99.90;;;;;;5072642;28;20824;-57
2022/10/20 03:05:50;;;;;;;15.50;12.40;;;12.30;99.90;;;;;;5072669;28;20541;-57
2022/10/20 03:08:17;;;;;;;14.10;12.70;;;12.30;99.90;;;;;;5071021;28;20449;-57
2022/10/20 03:10:44;;;;;;;16.60;12.70;;;12.30;99.90;;;;;;5072627;28;20476;-57
2022/10/20 03:13:13;;;;;;;16.43;11.53;;;12.30;99.90;;;;;;5075866;28;20471;-57
2022/10/20 03:15:40;;;;;;;13.73;11.87;;;12.40;99.90;;;;;;5075161;28;20461;-57
2022/10/20 03:18:07;;;;;;;12.17;10.83;;;12.40;99.90;;;;;;5076674;28;20452;-58
2022/10/20 03:20:36;;;;;;;17.53;11.13;;;12.40;99.90;;;;;;5076601;28;20486;-58
2022/10/20 03:23:03;;;;;;;19.70;13.27;;;12.40;99.90;;;;;;5074562;28;20463;-58
2022/10/20 03:25:32;;;;;;;13.67;12.27;;;12.40;99.90;;;;;;5076405;28;20448;-57
2022/10/20 03:27:59;;;;;;;12.80;10.97;;;12.30;99.90;;;;;;5076583;28;20816;-57
2022/10/20 03:30:26;;;;;;;15.73;12.30;;;12.30;99.90;;;;;;5074104;28;20445;-58
2022/10/20 03:32:55;;;;;;;15.13;13.03;;;12.30;99.90;;;;;;5075877;28;20471;-58
2022/10/20 03:35:22;;;;;;;21.77;13.07;;;12.30;99.90;;;;;;5076209;28;20950;-58
2022/10/20 03:37:51;;;;;;;15.77;12.07;;;12.30;99.90;;;;;;5073641;28;20435;-58
2022/10/20 03:40:18;;;;;;;13.87;10.13;;;12.20;99.90;;;;;;5075978;28;20483;-58
2022/10/20 03:42:45;;;;;;;17.50;12.23;;;12.10;99.90;;;;;;5075369;28;20468;-59
2022/10/20 03:45:12;;;;;;;14.40;11.97;;;12.20;99.90;;;;;;5073563;28;20450;-57
2022/10/20 03:47:39;;;;;;;14.47;11.00;;;12.30;99.90;;;;;;5075723;28;20456;-57
2022/10/20 03:50:07;;;;;;;14.93;12.00;;;12.30;99.90;;;;;;5074204;28;20488;-57
2022/10/20 03:52:35;;;;;;;12.97;11.60;;;12.30;99.90;;;;;;5073423;28;20978;-57
2022/10/20 03:55:04;;;;;;;15.60;12.50;;;12.30;99.90;;;;;;5075498;28;20544;-57
2022/10/20 03:57:31;;;;;;;15.67;11.57;;;12.40;99.90;;;;;;5075726;28;20451;-57
2022/10/20 03:59:58;;;;;;;13.17;11.00;;;12.20;99.90;;;;;;5073360;28;20448;-58
2022/10/20 04:02:33;;;;;;;14.87;11.40;;;12.20;99.90;;;;;;5075193;28;20683;-57
2022/10/20 04:05:00;;;;;;;12.10;10.90;;;12.30;99.90;;;;;;5075797;28;20502;-58
2022/10/20 04:07:28;;;;;;;14.80;11.40;;;12.40;99.90;;;;;;5073403;28;20433;-58
2022/10/20 04:09:55;;;;;;;14.00;11.60;;;12.40;99.90;;;;;;5075452;28;20455;-58
2022/10/20 04:12:24;;;;;;;13.97;11.97;;;12.40;99.90;;;;;;5075826;28;20464;-57
2022/10/20 04:14:51;;;;;;;16.00;11.33;;;12.30;99.90;;;;;;5073774;28;20919;-58
2022/10/20 04:17:18;;;;;;;14.10;12.60;;;12.30;99.90;;;;;;5075659;28;20463;-58
2022/10/20 04:19:46;;;;;;;12.77;11.47;;;12.20;99.90;;;;;;5075273;28;20934;-58
2022/10/20 04:22:13;;;;;;;14.07;11.43;;;12.20;99.90;;;;;;5072694;28;20484;-58
2022/10/20 04:24:40;;;;;;;13.87;12.23;;;12.30;99.90;;;;;;5074377;28;20942;-58
2022/10/20 04:27:08;;;;;;;12.27;11.00;;;12.30;99.90;;;;;;5075265;28;20456;-58
2022/10/20 04:29:36;;;;;;;15.57;12.70;;;12.30;99.90;;;;;;5072693;28;20449;-57
2022/10/20 04:32:04;;;;;;;15.70;11.10;;;12.40;99.90;;;;;;5075030;28;20472;-57
2022/10/20 04:34:31;;;;;;;17.03;12.40;;;12.40;99.90;;;;;;5075180;28;20455;-57
2022/10/20 04:36:58;;;;;;;15.50;12.83;;;12.50;99.90;;;;;;5072962;28;20466;-57
2022/10/20 04:39:25;;;;;;;14.47;12.07;;;12.50;99.90;;;;;;5074946;28;20499;-58
2022/10/20 04:41:52;;;;;;;14.67;12.07;;;12.40;99.90;;;;;;5074650;28;20488;-58
2022/10/20 04:44:20;;;;;;;24.60;13.83;;;12.50;99.90;;;;;;5072901;28;20460;-57
2022/10/20 04:46:48;;;;;;;16.07;12.77;;;12.50;99.90;;;;;;5075085;28;20840;-57
2022/10/20 04:49:15;;;;;;;16.67;12.87;;;12.60;99.90;;;;;;5074184;28;20986;-58
2022/10/20 04:51:43;;;;;;;14.07;12.67;;;12.70;99.90;;;;;;5072439;28;20440;-58
2022/10/20 04:54:10;;;;;;;16.40;13.43;;;12.70;99.90;;;;;;5074930;28;20449;-57
2022/10/20 04:56:37;;;;;;;20.93;14.40;;;12.70;99.90;;;;;;5074301;28;20460;-57
2022/10/20 04:59:04;;;;;;;17.30;14.50;;;;;;;;;;5072536;28;20445;-57
2022/10/20 05:01:32;;;;;;;20.33;13.30;;;12.80;99.90;;;;;;5074161;28;20479;-57
2022/10/20 05:04:00;;;;;;;17.23;12.90;;;12.80;99.90;;;;;;5074351;28;20455;-57
2022/10/20 05:06:29;;;;;;;17.87;13.57;;;12.90;99.90;;;;;;5072655;28;20449;-58
2022/10/20 05:08:58;;;;;;;16.30;14.60;;;12.90;99.90;;;;;;5074300;28;20448;-57
2022/10/20 05:11:27;;;;;;;17.87;13.20;;;12.90;99.90;;;;;;5074120;28;20441;-58
2022/10/20 05:13:55;;;;;;;16.07;14.20;;;13.00;99.90;;;;;;5072014;28;20544;-58
2022/10/20 05:16:22;;;;;;;16.10;13.13;;;13.00;99.90;;;;;;5073587;28;20531;-58
2022/10/20 05:18:51;;;;;;;17.50;13.23;;;13.00;99.90;;;;;;5074019;28;20428;-58
2022/10/20 05:21:21;;;;;;;15.77;12.43;;;13.10;99.90;;;;;;5071866;28;20566;-58
2022/10/20 05:23:49;;;;;;;16.10;12.10;;;13.10;99.90;;;;;;5073127;28;20970;-57
2022/10/20 05:26:17;;;;;;;14.93;12.90;;;13.10;99.90;;;;;;5072674;28;20824;-57
2022/10/20 05:28:46;;;;;;;17.20;12.13;;;13.10;99.90;;;;;;5071931;28;20455;-58
2022/10/20 05:31:14;;;;;;;15.53;12.77;;;13.10;99.90;;;;;;5073534;28;20435;-58
2022/10/20 05:33:45;;;;;;;18.73;13.00;;;13.00;99.90;;;;;;5073788;28;20452;-57
2022/10/20 05:36:14;;;;;;;18.20;13.27;;;13.00;99.90;;;;;;5071575;28;20433;-57
2022/10/20 05:38:42;;;;;;;17.20;14.50;;;13.10;99.90;;;;;;5073507;28;20828;-57
2022/10/20 05:41:11;;;;;;;20.27;13.03;;;13.00;99.90;;;;;;5073538;28;20483;-57
2022/10/20 05:43:39;;;;;;;17.00;13.90;;;13.00;99.90;;;;;;5070054;28;20471;-57
2022/10/20 05:46:07;;;;;;;18.60;13.33;;;12.90;99.90;;;;;;5072355;28;20448;-57
2022/10/20 05:48:34;;;;;;;21.47;14.33;;;13.00;99.90;;;;;;5073576;28;20529;-57
2022/10/20 05:51:08;;;;;;;14.90;13.30;;;12.90;99.90;;;;;;5070078;28;20842;-57
2022/10/20 05:53:35;;;;;;;15.60;13.13;;;12.90;99.90;;;;;;5072777;28;20468;-57
2022/10/20 05:56:05;;;;;;;24.33;13.97;;;12.90;99.90;;;;;;5073350;28;20460;-57
2022/10/20 05:58:32;;;;;;;16.30;12.77;;;12.90;99.90;;;;;;5072197;28;20544;-57
2022/10/20 06:01:10;;;;;;;15.90;12.17;;;12.90;99.90;;;;;;5073109;28;20672;-57
2022/10/20 06:03:37;;;;;;;15.67;12.63;;;12.90;99.90;;;;;;5071095;28;20464;-56
2022/10/20 06:06:05;;;;;;;17.47;12.50;;;12.90;99.90;;;;;;5072637;28;20769;-56
2022/10/20 06:08:32;;;;;;;17.43;13.00;;;12.90;99.90;;;;;;5073399;28;20459;-57
2022/10/20 06:11:06;;;;;;;15.10;13.37;;;12.90;99.90;;;;;;5071158;28;20631;-57
2022/10/20 06:13:33;;;;;;;16.40;12.20;;;12.90;99.90;;;;;;5072432;28;20468;-57
2022/10/20 06:16:04;;;;;;;13.43;11.53;;;13.00;99.90;;;;;;5072987;28;20467;-57
2022/10/20 06:18:32;;;;;;;15.53;12.10;;;13.00;99.90;;;;;;5070689;28;20448;-57
2022/10/20 06:21:01;;;;;;;12.90;11.10;;;13.10;99.90;;;;;;5072653;28;20445;-57
2022/10/20 06:23:28;;;;;;;14.50;13.00;;;13.10;99.90;;;;;;5072776;28;20467;-57
2022/10/20 06:26:01;;;;;;;15.47;12.23;;;13.10;99.90;;;;;;5070235;28;20451;-58
2022/10/20 06:28:31;;;;;;;14.47;12.00;;;13.20;99.90;;;;;;5075675;28;21012;-57
2022/10/20 06:30:59;;;;;;;15.37;12.90;;;13.20;99.90;;;;;;5075745;28;20512;-57
2022/10/20 06:33:29;;;;;;;14.37;12.63;;;13.20;99.90;;;;;;5069800;28;21244;-56
2022/10/20 06:35:59;;;;;;;13.17;11.77;;;13.30;99.90;;;;;;5072871;28;20444;-58
2022/10/20 06:38:26;;;;;;;16.77;13.03;;;13.30;99.90;;;;;;5078807;28;20583;-57
2022/10/20 06:40:54;;;;;;;18.27;12.90;;;13.30;99.90;;;;;;5084753;28;20441;-57
2022/10/20 06:43:21;;;;;;;12.03;10.73;;;13.30;99.90;;;;;;5072385;28;20831;-57
2022/10/20 06:45:56;;;;;;;15.13;11.00;;;13.30;99.90;;;;;;5071462;28;20483;-57
2022/10/20 06:48:23;;;;;;;14.50;10.93;;;13.30;99.90;;;;;;5088267;28;20472;-57
2022/10/20 06:50:55;;;;;;;16.90;12.80;;;13.40;99.90;;;;;;5089556;28;20562;-57
2022/10/20 06:53:22;;;;;;;15.27;12.70;;;13.40;99.90;;;;;;5077378;28;20468;-57
2022/10/20 06:55:57;;;;;;;17.10;12.10;;;13.40;99.90;;;;;;5074663;28;20543;-59
2022/10/20 06:58:24;;;;;;;17.63;12.60;;;13.40;99.90;;;;;;5091208;28;20431;-57
2022/10/20 07:01:04;;;;;;;25.33;13.17;;;13.50;99.90;;;;;;5084578;28;20441;-57
2022/10/20 07:03:33;;;;;;;16.43;13.03;;;13.50;99.90;;;;;;5072659;28;20457;-56
2022/10/20 07:06:01;;;;;;;18.83;12.80;;;;;;;;;;5088527;28;20554;-57
2022/10/20 07:08:29;;;;;;;13.30;11.90;;;13.60;99.90;;;;;;5090435;28;20522;-57
2022/10/20 07:11:01;;;;;;;15.40;12.27;;;13.60;99.90;;;;;;5088447;28;20918;-57
2022/10/20 07:13:29;;;;;;;15.20;11.33;;;13.60;99.90;;;;;;5089054;28;20510;-57
2022/10/20 07:15:57;;;;;;;15.33;12.33;;;13.60;99.90;;;;;;5090255;28;20435;-58
2022/10/20 07:18:26;;;;;;;14.37;12.87;;;13.60;99.90;;;;;;5089508;28;20483;-58
2022/10/20 07:20:58;;;;;;;19.97;12.77;;;13.60;99.90;;;;;;5089853;28;20929;-58
2022/10/20 07:23:25;;;;;;;20.03;12.87;;;13.60;99.90;;;;;;5090172;28;20483;-59
2022/10/20 07:25:53;;;;;;;15.63;10.87;;;13.70;99.90;;;;;;5088676;28;20644;-58
2022/10/20 07:28:21;;;;;;;14.83;11.67;;;13.80;99.90;;;;;;5090106;28;20900;-59
2022/10/20 07:30:48;;;;;;;15.80;13.17;;;13.90;99.90;;;;;;5089803;28;20990;-59
2022/10/20 07:33:15;;;;;;;13.90;11.70;;;14.00;99.90;;;;;;5088656;28;20459;-58
2022/10/20 07:35:44;;;;;;;10.77;9.60;;;14.00;99.90;;;;;;5089731;28;20903;-58
2022/10/20 07:38:11;;;;;;;12.50;10.20;;;13.90;99.90;;;;;;5090813;28;20478;-57
2022/10/20 07:40:38;;;;;;;11.30;10.20;;;13.90;99.90;;;;;;5088714;28;20534;-57
2022/10/20 07:43:06;;;;;;;11.57;10.30;;;14.10;99.90;;;;;;5091770;28;20566;-59
2022/10/20 07:45:33;;;;;;;11.73;9.73;;;14.20;99.90;;;;;;5091928;28;20845;-58
2022/10/20 07:48:00;;;;;;;13.10;11.07;;;14.20;99.90;;;;;;5089426;28;20896;-58
2022/10/20 07:50:28;;;;;;;13.03;9.73;;;14.30;99.90;;;;;;5091530;28;20483;-58
2022/10/20 07:52:56;;;;;;;11.00;9.10;;;14.50;99.90;;;;;;5091675;28;20459;-58
2022/10/20 07:55:24;;;;;;;10.40;9.10;;;14.50;99.90;;;;;;5088896;28;20538;-58
2022/10/20 07:57:51;;;;;;;10.43;9.27;;;14.50;99.90;;;;;;5092198;28;20880;-58
2022/10/20 08:00:18;;;;;;;10.10;9.10;;;14.50;99.90;;;;;;5095274;28;20813;-58
2022/10/20 08:02:45;;;;;;;10.20;9.10;;;14.60;99.90;;;;;;5092905;28;20565;-58
2022/10/20 08:05:13;;;;;;;14.00;9.30;;;14.60;99.90;;;;;;5095782;28;20455;-58
2022/10/20 08:07:40;;;;;;;10.93;9.10;;;14.70;99.90;;;;;;5095019;28;20453;-58
2022/10/20 08:10:10;;;;;;;12.73;10.70;;;14.60;99.90;;;;;;5093162;28;20443;-58
2022/10/20 08:12:38;;;;;;;9.70;8.70;;;14.70;99.90;;;;;;5095290;28;20462;-58
2022/10/20 08:15:06;;;;;;;13.17;9.37;;;14.80;99.90;;;;;;5095764;28;20462;-58
2022/10/20 08:17:33;;;;;;;11.00;9.90;;;15.00;99.90;;;;;;5093050;28;20550;-58
2022/10/20 08:20:00;;;;;;;15.10;9.70;;;14.90;99.90;;;;;;5095578;28;20527;-58
2022/10/20 08:22:27;;;;;;;9.50;8.60;;;14.90;99.90;;;;;;5095432;28;20487;-58
2022/10/20 08:24:55;;;;;;;10.27;9.27;;;14.90;99.90;;;;;;5093091;28;20848;-58
2022/10/20 08:27:24;;;;;;;9.40;8.50;;;15.00;99.90;;;;;;5095522;28;20470;-59
2022/10/20 08:29:51;;;;;;;12.63;8.27;;;15.20;99.90;;;;;;5094761;28;20559;-58
2022/10/20 08:32:18;;;;;;;12.40;8.50;;;15.20;99.90;;;;;;5092905;28;20467;-58
2022/10/20 08:34:46;;;;;;;9.20;7.43;;;15.30;99.90;;;;;;5095281;28;20861;-58
2022/10/20 08:37:13;;;;;;;12.50;8.43;;;15.30;99.90;;;;;;5094572;28;20804;-59
2022/10/20 08:39:40;;;;;;;9.13;8.07;;;15.30;99.90;;;;;;5092601;28;20558;-57
2022/10/20 08:42:10;;;;;;;10.43;9.10;;;15.40;99.90;;;;;;5094953;28;20939;-57
2022/10/20 08:44:40;;;;;;;10.03;8.33;;;15.40;99.90;;;;;;5094030;28;20475;-59
2022/10/20 08:47:21;;;;;;;12.67;9.13;;;15.50;99.90;;;;;;5092949;28;20558;-57
2022/10/20 08:49:48;;;;;;;13.43;8.20;;;15.60;99.90;;;;;;5094774;28;20558;-57
2022/10/20 08:52:17;;;;;;;15.83;7.57;;;15.80;99.90;;;;;;5094539;28;20460;-57
2022/10/20 08:54:44;;;;;;;9.47;7.97;;;15.90;99.90;;;;;;5092448;28;20447;-57
2022/10/20 08:57:19;;;;;;;9.07;6.80;;;;;;;;;;5094684;28;20530;-57
2022/10/20 08:59:52;;;;;;;8.73;7.47;;;16.00;99.90;;;;;;5093745;28;20438;-56
2022/10/20 09:02:19;;;;;;;10.60;9.47;;;16.00;99.90;;;;;;5092238;28;20487;-57
2022/10/20 09:04:50;;;;;;;9.23;8.23;;;16.10;99.90;;;;;;5093986;28;20534;-57
2022/10/20 09:07:24;;;;;;;10.00;8.13;;;16.30;99.90;;;;;;5094469;28;20519;-56
2022/10/20 09:09:53;;;;;;;9.47;6.97;;;16.30;99.90;;;;;;5091768;28;20438;-57
2022/10/20 09:12:21;;;;;;;10.10;7.83;;;16.40;99.90;;;;;;5094158;28;20551;-56
2022/10/20 09:14:50;;;;;;;10.47;8.00;;;16.40;99.90;;;;;;5093419;28;20457;-57
2022/10/20 09:17:18;;;;;;;7.13;6.43;;;16.50;99.90;;;;;;5093166;28;20455;-57
2022/10/20 09:19:49;;;;;;;9.50;7.07;;;16.70;99.90;;;;;;5093755;28;20537;-57
2022/10/20 09:22:21;;;;;;;10.43;8.50;;;16.80;99.90;;;;;;5093854;28;20487;-56
2022/10/20 09:24:49;;;;;;;7.93;7.23;;;16.80;99.90;;;;;;5093013;28;20478;-57
2022/10/20 09:27:23;;;;;;;9.83;7.57;;;16.80;99.90;;;;;;5093423;28;20439;-56
2022/10/20 09:29:52;;;;;;;7.60;6.87;;;16.70;99.90;;;;;;5093862;28;20452;-56
2022/10/20 09:32:31;;;;;;;9.10;7.20;;;16.60;99.90;;;;;;5091767;28;20551;-56
2022/10/20 09:35:12;;;;;;;7.03;6.30;;;16.70;99.90;;;;;;5093188;28;20463;-56
2022/10/20 09:37:41;;;;;;;7.40;6.70;;;16.70;99.90;;;;;;5094063;28;20514;-57
2022/10/20 09:40:15;;;;;;;7.70;7.00;;;16.80;99.90;;;;;;5091718;28;20443;-57
2022/10/20 09:42:48;;;;;;;7.40;6.57;;;16.90;99.90;;;;;;5092924;28;20566;-57
2022/10/20 09:45:21;;;;;;;9.73;6.80;;;16.90;99.90;;;;;;5093875;28;20477;-57
2022/10/20 09:47:52;;;;;;;8.97;6.60;;;16.80;99.90;;;;;;5091535;28;20459;-57
2022/10/20 09:50:25;;;;;;;10.60;7.43;;;16.80;99.90;;;;;;5093323;28;20558;-57
2022/10/20 09:52:53;;;;;;;9.97;7.30;;;16.80;99.90;;;;;;5093420;28;20550;-57
2022/10/20 09:55:27;;;;;;;8.80;7.73;;;16.90;99.90;;;;;;5092420;28;20886;-56
2022/10/20 09:57:55;;;;;;;8.33;7.60;;;16.90;99.90;;;;;;5093699;28;20450;-56
2022/10/20 10:00:26;;;;;;;7.57;6.87;;;16.90;99.90;;;;;;5092828;28;20458;-56
2022/10/20 10:03:09;;;;;;;10.30;6.90;;;17.00;99.90;;;;;;5092711;28;20479;-56
2022/10/20 10:05:37;;;;;;;7.40;6.77;;;17.00;99.90;;;;;;5092044;28;20918;-57
2022/10/20 10:08:04;;;;;;;6.80;6.20;;;17.00;99.90;;;;;;5090556;28;20747;-56
2022/10/20 10:10:32;;;;;;;10.97;7.70;;;16.90;99.90;;;;;;5092196;28;20866;-56
2022/10/20 10:13:02;;;;;;;7.80;6.80;;;17.00;99.90;;;;;;5091992;28;20495;-56
2022/10/20 10:15:34;;;;;;;8.77;7.50;;;17.10;99.90;;;;;;5090261;28;20471;-56
2022/10/20 10:18:13;;;;;;;8.63;7.73;;;17.10;99.90;;;;;;5092486;28;20517;-56
2022/10/20 10:20:41;;;;;;;8.87;7.27;;;17.40;99.90;;;;;;5091760;28;20432;-56
2022/10/20 10:23:18;;;;;;;10.23;7.33;;;17.30;99.90;;;;;;5089667;28;21306;-56
2022/10/20 10:25:46;;;;;;;9.33;7.80;;;17.30;99.90;;;;;;5092040;28;20463;-56
2022/10/20 10:28:27;;;;;;;8.37;7.63;;;17.40;99.90;;;;;;5091710;28;20538;-55
2022/10/20 10:31:09;;;;;;;15.43;7.90;;;17.30;99.90;;;;;;5091108;28;20473;-56
2022/10/20 10:33:36;;;;;;;8.97;7.03;;;17.20;99.90;;;;;;5092113;28;20455;-56
2022/10/20 10:36:07;;;;;;;9.87;8.33;;;17.30;99.90;;;;;;5091410;28;20486;-57
2022/10/20 10:38:36;;;;;;;9.70;8.70;;;17.20;99.90;;;;;;5089831;28;21033;-56
2022/10/20 10:41:13;;;;;;;10.23;8.33;;;17.50;99.90;;;;;;5091498;28;20538;-57
2022/10/20 10:43:49;;;;;;;9.27;7.77;;;17.60;99.90;;;;;;5091196;28;20482;-56
2022/10/20 10:46:21;;;;;;;12.47;7.90;;;17.60;99.90;;;;;;5090558;28;20428;-56
2022/10/20 10:49:03;;;;;;;8.10;7.30;;;17.60;99.90;;;;;;5091425;28;20460;-56
2022/10/20 10:51:43;;;;;;;9.27;7.80;;;17.80;99.90;;;;;;5091334;28;20981;-56
2022/10/20 10:54:27;;;;;;;14.10;8.40;;;17.80;99.90;;;;;;5089625;28;20416;-56
2022/10/20 10:56:59;;;;;;;10.97;6.77;;;17.90;99.90;;;;;;5091097;28;20474;-57
2022/10/20 10:59:32;;;;;;;10.60;7.67;;;17.90;99.90;;;;;;5091633;28;20435;-57
2022/10/20 11:02:25;;;;;;;7.80;6.73;;;17.80;99.90;;;;;;5090573;28;20475;-57
2022/10/20 11:05:27;;;;;;;10.40;7.93;;;17.60;99.90;;;;;;5091539;28;20452;-57
2022/10/20 11:08:10;;;;;;;9.90;6.93;;;17.60;99.90;;;;;;5090448;28;20438;-57
2022/10/20 11:10:47;;;;;;;9.63;7.30;;;17.60;99.90;;;;;;5091021;28;20964;-56
2022/10/20 11:13:23;;;;;;;7.07;6.30;;;17.70;99.90;;;;;;5091349;28;20555;-57
2022/10/20 11:16:08;;;;;;;8.47;7.57;;;17.70;99.90;;;;;;5089727;28;20419;-57
2022/10/20 11:19:14;;;;;;;9.67;7.10;;;17.70;99.90;;;;;;5091161;28;20412;-57
2022/10/20 11:21:53;;;;;;;7.80;6.80;;;17.70;99.90;;;;;;5080284;28;20451;-57
2022/10/20 11:24:39;;;;;;;7.73;6.93;;;17.80;99.90;;;;;;5090363;28;20973;-58
2022/10/20 11:27:11;;;;;;;9.13;7.13;;;17.80;99.90;;;;;;5090487;28;20523;-58
2022/10/20 11:29:42;;;;;;;8.33;5.87;;;17.90;99.90;;;;;;5090473;28;20520;-57
2022/10/20 11:32:21;;;;;;;8.07;6.70;;;17.90;99.90;;;;;;5091185;28;20463;-57
2022/10/20 11:34:59;;;;;;;6.13;5.60;;;17.90;99.90;;;;;;5094767;28;20927;-57
2022/10/20 11:37:29;;;;;;;8.50;6.20;;;18.10;99.90;;;;;;5093694;28;20531;-57
2022/10/20 11:40:04;;;;;;;7.67;6.43;;;18.10;99.90;;;;;;5094235;28;20538;-57
2022/10/20 11:42:37;;;;;;;7.80;5.80;;;18.00;99.90;;;;;;5094666;28;20470;-57
2022/10/20 11:45:28;;;;;;;13.47;7.27;;;18.00;99.90;;;;;;5093997;28;20527;-57
2022/10/20 11:48:02;;;;;;;7.73;6.30;;;18.00;99.90;;;;;;5094922;28;20482;-56
2022/10/20 11:50:31;;;;;;;9.33;7.23;;;17.90;99.90;;;;;;5094480;28;20563;-57
2022/10/20 11:53:21;;;;;;;6.97;5.90;;;17.80;99.90;;;;;;5093334;28;20463;-56
2022/10/20 11:56:39;;;;;;;8.43;6.20;;;17.80;99.90;;;;;;5094632;28;20431;-56
2022/10/20 11:59:40;;;;;;;7.27;5.47;;;17.70;99.90;;;;;;5093472;28;20519;-57
2022/10/20 12:02:45;;;;;;;9.63;6.97;;;17.70;99.90;;;;;;5068786;28;20503;-57
2022/10/20 12:05:29;;;;;;;8.33;6.90;;;17.60;99.90;;;;;;5094683;28;20526;-57
2022/10/20 12:08:27;;;;;;;6.37;5.77;;;17.70;99.90;;;;;;5093274;28;20412;-57
2022/10/20 12:11:00;;;;;;;9.47;6.57;;;17.60;99.90;;;;;;5093489;28;20482;-57
2022/10/20 12:13:36;;;;;;;7.17;6.50;;;17.60;99.90;;;;;;5094203;28;20486;-56
2022/10/20 12:16:03;;;;;;;6.10;5.50;;;17.60;99.90;;;;;;5094133;28;20977;-57
2022/10/20 12:18:31;;;;;;;8.20;6.27;;;17.60;99.90;;;;;;5094708;28;20446;-57
2022/10/20 12:21:01;;;;;;;7.17;6.43;;;17.70;99.90;;;;;;5093770;28;20534;-56
2022/10/20 12:24:01;;;;;;;12.20;7.20;;;17.70;99.90;;;;;;5093949;28;20522;-56
2022/10/20 12:26:53;;;;;;;7.97;6.03;;;17.70;99.90;;;;;;5094155;28;20431;-56
2022/10/20 12:29:55;;;;;;;7.03;6.37;;;17.70;99.90;;;;;;5093355;28;20502;-57
2022/10/20 12:33:03;;;;;;;6.73;6.13;;;17.70;99.90;;;;;;5090781;28;20558;-57
2022/10/20 12:35:59;;;;;;;6.97;5.83;;;17.80;99.90;;;;;;5094479;28;20431;-57
2022/10/20 12:38:28;;;;;;;11.43;6.00;;;17.90;99.90;;;;;;5093864;28;20458;-57
2022/10/20 12:41:02;;;;;;;8.00;7.20;;;17.90;99.90;;;;;;5093940;28;20798;-57
2022/10/20 12:43:36;;;;;;;7.17;5.70;;;17.90;99.90;;;;;;5091514;28;20804;-57
2022/10/20 12:46:20;;;;;;;7.23;6.10;;;17.90;99.90;;;;;;5092892;28;20955;-57
2022/10/20 12:48:55;;;;;;;6.50;5.90;;;17.90;99.90;;;;;;5093378;28;20428;-57
2022/10/20 12:51:34;;;;;;;7.97;6.00;;;17.90;99.90;;;;;;5092501;28;20466;-57
2022/10/20 12:54:06;;;;;;;8.13;7.43;;;17.90;99.90;;;;;;5093883;28;20432;-56
2022/10/20 12:56:39;;;;;;;6.60;5.97;;;17.90;99.90;;;;;;5094014;28;20432;-56
2022/10/20 12:59:39;;;;;;;12.23;6.57;;;17.80;99.90;;;;;;5092298;28;20463;-56